Latest Weather Observations for Territory Grape Farm

IDD60801

Issued at 11:11 am CST Tuesday 2 March 2021 (issued every 10 minutes, with the page automatically refreshed every 10 minutes)

About weather observations | Map of weather stations | Latest weather observations for NT | Other Formats
Station Details ID: 015643 Name: TERRITORY GRAPE FARM Lat: -22.45 Lon: 133.64 Height: 565.6 m
Data from the previous 72 hours. | See also: Recent months at Territory Grape Farm
Date/Time
CST
Temp
°C
App
Temp
°C
Dew
Point
°C
Rel
Hum
%
Delta-T
°C
Wind Press
QNH
hPa
Press
MSL
hPa
Rain since
9am
mm
Dir  Spd
km/h
Gust
km/h
Spd
kts
Gust
kts
02/11:00am 36.8 32.1 5.9 15 17.3 ESE 20 32 11 17 1012.3 1008.4 0.0
02/10:30am 36.4 32.8 8.3 18 16.3 ESE 17 28 9 15 1012.4 1008.5 0.0
02/10:00am 35.3 31.8 8.9 20 15.4 ESE 17 24 9 13 1012.7 1008.7 0.0
02/09:30am 34.1 30.4 9.4 22 14.4 ESE 19 26 10 14 1012.8 1008.8 0.0
02/09:00am 32.4 28.6 9.2 24 13.4 ESE 19 24 10 13 1012.7 1008.7 0.0
02/08:30am 30.8 26.7 7.9 24 12.9 SE 19 24 10 13 1012.7 1008.7 0.0
02/08:00am 28.9 24.8 6.3 24 12.3 SE 17 22 9 12 1012.7 1008.7 0.0
02/07:30am 25.7 22.3 5.8 28 10.5 SE 13 17 7 9 1012.4 1008.5 0.0
02/07:00am 22.4 18.9 5.4 33 8.7 SE 13 15 7 8 1012.1 1008.2 0.0
02/06:30am 20.4 16.8 4.8 36 7.8 SE 13 15 7 8 1012.0 1008.1 0.0
02/06:00am 19.1 15.5 4.8 39 7.1 SE 13 13 7 7 1011.9 1008.0 0.0
02/05:30am 21.0 17.9 5.4 36 8.0 SSE 11 13 6 7 1011.7 1007.8 0.0
02/05:00am 21.2 18.4 5.1 35 8.2 SSE 9 11 5 6 1011.6 1007.6 0.0
02/04:30am 20.9 17.7 5.3 36 7.9 SSE 11 15 6 8 1011.4 1007.4 0.0
02/04:00am 20.8 17.2 5.2 36 7.9 SSE 13 15 7 8 1011.4 1007.4 0.0
02/03:30am 20.9 17.4 5.3 36 7.9 SSE 13 13 7 7 1011.6 1007.6 0.0
02/03:00am 21.9 18.4 5.3 34 8.5 SSE 13 15 7 8 1011.7 1007.8 0.0
02/02:30am 22.5 19.3 5.0 32 8.9 SSE 11 15 6 8 1011.9 1008.0 0.0
02/02:00am 22.8 19.4 5.7 33 8.9 SSE 13 13 7 7 1012.0 1008.1 0.0
02/01:30am 21.2 18.2 5.9 37 7.9 SE 11 11 6 6 1012.2 1008.3 0.0
02/01:00am 21.6 18.6 5.9 36 8.1 SE 11 13 6 7 1012.3 1008.4 0.0
02/12:30am 22.1 19.0 5.5 34 8.5 SE 11 13 6 7 1012.6 1008.6 0.0
02/12:00am 24.7 21.6 5.5 29 10.0 SSE 11 15 6 8 1012.4 1008.5 0.0
 
Date/Time
CST
Temp
°C
App
Temp
°C
Dew
Point
°C
Rel
Hum
%
Delta-T
°C
Wind Press
QNH
hPa
Press
MSL
hPa
Rain since
9am
mm
Dir  Spd
km/h
Gust
km/h
Spd
kts
Gust
kts
01/11:30pm 24.9 22.2 5.7 29 10.1 SSE 9 13 5 7 1012.4 1008.5 0.0
01/11:00pm 24.5 21.6 6.3 31 9.6 SE 11 11 6 6 1012.2 1008.3 0.0
01/10:30pm 23.7 21.1 6.0 32 9.3 ESE 9 11 5 6 1012.1 1008.2 0.0
01/10:00pm 24.8 21.6 5.1 28 10.2 SE 11 13 6 7 1011.9 1008.0 0.0
01/09:30pm 25.9 22.3 4.9 26 10.9 SE 13 15 7 8 1011.5 1007.5 0.0
01/09:00pm 26.0 22.8 5.0 26 11.0 ESE 11 13 6 7 1011.2 1007.2 0.0
01/08:30pm 26.6 23.4 5.0 25 11.3 SE 11 13 6 7 1010.8 1006.8 0.0
01/08:00pm 27.9 24.3 4.9 23 12.1 SE 13 13 7 7 1010.4 1006.5 0.0
01/07:30pm 30.0 26.6 3.9 19 13.7 SE 11 13 6 7 1010.1 1006.2 0.0
01/07:00pm 33.3 29.2 2.2 14 16.2 ESE 13 17 7 9 1009.7 1005.7 0.0
01/06:30pm 35.2 30.6 1.5 12 17.5 SE 15 22 8 12 1009.5 1005.5 0.0
01/06:00pm 37.0 30.5 0.4 10 18.9 ESE 24 32 13 17 1009.2 1005.2 0.0
01/05:30pm 37.8 32.7 1.0 10 19.3 SSE 17 26 9 14 1009.1 1005.1 0.0
01/05:00pm 37.9 33.6 1.0 10 19.3 SE 13 26 7 14 1008.9 1004.9 0.0
01/04:30pm 38.9 34.0 1.8 10 19.8 ESE 17 26 9 14 1008.9 1004.9 0.0
01/04:00pm 38.6 33.6 1.6 10 19.6 SSE 17 30 9 16 1008.9 1004.9 0.0
01/03:30pm 38.2 34.3 1.3 10 19.5 S 11 22 6 12 1009.2 1005.2 0.0
01/03:00pm 37.5 33.9 0.7 10 19.2 S 9 22 5 12 1009.5 1005.5 0.0
01/02:30pm 37.9 35.0 2.4 11 19.0 ESE 7 20 4 11 1009.9 1005.9 0.0
01/02:00pm 37.5 33.0 2.1 11 18.8 S 15 22 8 12 1010.5 1006.6 0.0
01/01:30pm 36.4 32.1 1.2 11 18.3 SSE 13 26 7 14 1011.2 1007.2 0.0
01/01:00pm 36.5 33.6 2.5 12 18.1 E 7 19 4 10 1011.6 1007.6 0.0
01/12:30pm 35.7 32.1 3.0 13 17.5 SSE 11 20 6 11 1012.0 1008.1 0.0
01/12:00pm 34.8 31.8 2.3 13 17.1 SSE 7 15 4 8 1012.3 1008.4 0.0
01/11:30am 34.0 30.4 0.6 12 17.0 SSE 9 15 5 8 1012.9 1008.9 0.0
01/11:00am 33.8 30.4 1.6 13 16.6 E 9 15 5 8 1013.3 1009.4 0.0
01/10:30am 33.4 29.7 2.3 14 16.2 ESE 11 15 6 8 1013.6 1009.7 0.0
01/10:00am 32.6 28.4 1.7 14 15.9 E 13 17 7 9 1013.7 1009.8 0.0
01/09:30am 31.8 27.9 1.0 14 15.6 ENE 11 15 6 8 1013.5 1009.6 0.0
01/09:00am 31.1 27.4 2.3 16 14.8 ENE 11 13 6 7 1013.6 1009.2 0.0
01/08:30am 29.3 26.7 4.0 20 13.2 E 7 11 4 6 1013.5 1009.1 0.0
01/08:00am 26.0 24.3 6.1 28 10.6 ESE 4 7 2 4 1013.5 1009.1 0.0
01/07:30am 21.4 19.7 5.7 36 8.1 S 4 6 2 3 1013.3 1008.9 0.0
01/07:00am 19.0 16.9 5.8 42 6.7 SSW 6 7 3 4 1013.0 1008.6 0.0
01/06:30am 18.6 15.9 5.5 42 6.6 SSW 9 11 5 6 1012.9 1008.5 0.0
01/06:00am 17.6 16.1 6.8 49 5.5 S 4 4 2 2 1012.4 1008.1 0.0
01/05:30am 18.0 16.3 5.9 45 6.1 S 4 4 2 2 1012.0 1007.6 0.0
01/05:00am 18.1 16.4 5.7 44 6.2 ESE 4 4 2 2 1011.7 1007.3 0.0
01/04:30am 19.2 16.9 4.9 39 7.1 ESE 6 7 3 4 1011.7 1007.3 0.0
01/04:00am 19.5 17.2 5.6 40 7.0 ESE 7 7 4 4 1011.7 1007.3 0.0
01/03:30am 18.5 15.9 6.0 44 6.3 ESE 9 9 5 5 1011.7 1007.3 0.0
01/03:00am 18.2 15.6 6.1 45 6.1 ESE 9 11 5 6 1011.7 1007.3 0.0
01/02:30am 20.3 17.0 4.4 35 7.9 SE 11 13 6 7 1011.8 1007.4 0.0
01/02:00am 19.6 16.0 4.9 38 7.4 ESE 13 13 7 7 1011.9 1007.5 0.0
01/01:30am 20.3 17.1 5.1 37 7.7 ESE 11 13 6 7 1012.0 1007.6 0.0
01/01:00am 21.4 18.2 4.9 34 8.3 E 11 13 6 7 1012.0 1007.6 0.0
01/12:30am 22.1 18.7 4.2 31 9.0 E 11 13 6 7 1012.1 1007.7 0.0
01/12:00am 22.6 19.1 3.7 29 9.4 E 11 13 6 7 1012.0 1007.6 0.0
 
Date/Time
CST
Temp
°C
App
Temp
°C
Dew
Point
°C
Rel
Hum
%
Delta-T
°C
Wind Press
QNH
hPa
Press
MSL
hPa
Rain since
9am
mm
Dir  Spd
km/h
Gust
km/h
Spd
kts
Gust
kts
28/11:30pm 23.1 19.1 5.1 31 9.3 E 15 17 8 9 1011.9 1007.5 0.0
28/11:00pm 22.9 19.5 5.8 33 8.9 E 13 17 7 9 1011.8 1007.4 0.0
28/10:30pm 23.6 21.4 7.7 36 8.6 ESE 9 9 5 5 1011.4 1007.0 0.0
28/10:00pm 23.8 21.2 7.8 36 8.7 ESE 11 13 6 7 1011.3 1006.9 0.0
28/09:30pm 25.8 23.7 8.3 33 9.7 SSE 9 15 5 8 1010.9 1006.5 0.0
28/09:00pm 26.3 25.4 9.2 34 9.6 WNW 4 6 2 3 1010.3 1005.9 0.0
28/08:30pm 27.3 25.4 7.7 29 10.8 NNW 7 7 4 4 1010.0 1005.6 0.0
28/08:00pm 27.7 25.3 7.0 27 11.3 N 9 9 5 5 1009.6 1005.2 0.0
28/07:30pm 30.5 28.0 5.0 20 13.7 NW 7 9 4 5 1009.2 1004.8 0.0
28/07:00pm 32.9 30.4 3.8 16 15.5 NW 6 7 3 4 1008.9 1004.4 0.0
28/06:30pm 36.1 33.7 -0.3 10 18.5 S 2 4 1 2 1008.8 1004.3 0.0
28/06:00pm 36.0 32.2 -0.4 10 18.5 S 9 13 5 7 1008.6 1004.2 0.0
28/05:30pm 36.5 32.8 0.0 10 18.7 SE 9 26 5 14 1008.6 1004.2 0.0
28/05:00pm 36.8 33.7 1.5 11 18.5 NE 7 11 4 6 1008.6 1004.2 0.0
28/04:30pm 37.0 33.9 0.4 10 18.9 SW 6 13 3 7 1008.5 1004.1 0.0
28/04:00pm 36.2 32.1 -0.2 10 18.5 SE 11 22 6 12 1008.9 1004.4 0.0
28/03:30pm 36.9 33.8 1.6 11 18.6 S 7 20 4 11 1009.2 1004.8 0.0
28/03:00pm 36.4 32.9 1.2 11 18.4 ESE 9 20 5 11 1009.6 1005.2 0.0
28/02:30pm 36.6 32.9 0.1 10 18.7 S 9 19 5 10 1010.0 1005.6 0.0
28/02:00pm 36.1 32.4 2.2 12 17.9 SW 11 22 6 12 1010.7 1006.2 0.0
28/01:30pm 36.0 33.2 2.1 12 17.9 W 6 15 3 8 1011.0 1006.6 0.0
28/01:00pm 35.8 33.0 2.0 12 17.8 NNE 6 15 3 8 1011.2 1006.8 0.0
28/12:30pm 35.1 31.8 2.6 13 17.2 WNW 9 15 5 8 1011.6 1007.2 0.0
28/12:00pm 34.2 30.2 0.8 12 17.1 NW 11 19 6 10 1012.0 1007.6 0.0
28/11:30am 34.1 30.9 0.7 12 17.0 N 7 13 4 7 1012.6 1008.2 0.0
28/11:00am 33.2 29.8 2.1 14 16.1 NE 9 15 5 8 1013.0 1008.6 0.0
28/10:30am 32.3 29.0 2.4 15 15.5 NE 9 17 5 9 1013.1 1008.7 0.0
28/10:00am 31.2 28.2 4.1 18 14.4 NE 9 15 5 8 1013.3 1008.9 0.0
28/09:30am 30.0 26.0 3.1 18 13.9 ENE 13 19 7 10 1013.4 1009.0 0.0
28/09:00am 28.2 25.0 3.1 20 12.8 NE 9 13 5 7 1013.2 1008.8 0.0
28/08:30am 26.6 23.7 4.4 24 11.5 ENE 9 13 5 7 1013.1 1008.7 0.0
28/08:00am 23.1 20.5 4.1 29 9.6 ESE 7 9 4 5 1013.0 1008.6 0.0
28/07:30am 19.4 17.9 5.1 39 7.2 SSE 2 4 1 2 1012.8 1008.4 0.0
28/07:00am 16.4 14.8 6.5 52 5.0 S 4 6 2 3 1012.6 1008.2 0.0
28/06:30am 15.6 13.9 5.8 52 4.9 S 4 6 2 3 1012.2 1007.8 0.0
28/06:00am 16.0 14.6 5.6 50 5.1 SSW 2 4 1 2 1011.9 1007.5 0.0
28/05:30am 16.9 14.7 5.2 46 5.8 SSW 6 6 3 3 1011.7 1007.3 0.0
28/05:00am 16.5 15.0 5.2 47 5.6 SSE 2 4 1 2 1011.5 1007.1 0.0
28/04:30am 17.5 14.9 4.1 41 6.5 ESE 7 7 4 4 1011.2 1006.8 0.0
28/04:00am 17.4 14.0 4.0 41 6.5 E 11 13 6 7 1011.1 1006.7 0.0
28/03:30am 17.1 15.5 6.3 49 5.5 E 4 6 2 3 1011.2 1006.8 0.0
28/03:00am 18.1 15.7 4.3 40 6.8 ESE 6 6 3 3 1011.2 1006.8 0.0
28/02:30am 18.2 15.5 3.7 38 7.0 ESE 7 7 4 4 1011.1 1006.7 0.0
28/02:00am 18.8 15.0 3.8 37 7.3 E 13 15 7 8 1011.2 1006.8 0.0
28/01:30am 19.5 16.2 4.8 38 7.3 ESE 11 13 6 7 1011.2 1006.8 0.0
28/01:00am 19.8 17.0 5.1 38 7.4 E 9 11 5 6 1011.4 1007.0 0.0
28/12:30am 20.5 17.1 5.7 38 7.6 E 13 15 7 8 1011.6 1007.2 0.0
28/12:00am 20.9 18.2 7.2 41 7.2 SE 11 11 6 6 1011.5 1007.1 0.0
 
Date/Time
CST
Temp
°C
App
Temp
°C
Dew
Point
°C
Rel
Hum
%
Delta-T
°C
Wind Press
QNH
hPa
Press
MSL
hPa
Rain since
9am
mm
Dir  Spd
km/h
Gust
km/h
Spd
kts
Gust
kts
27/11:30pm 22.4 19.1 6.6 36 8.3 SE 13 20 7 11 1011.6 1007.2 0.0
27/11:00pm 20.3 18.9 8.9 48 6.2 E 6 9 3 5 1011.0 1006.6 0.0
27/10:30pm 22.9 21.3 8.2 39 8.0 W 6 6 3 3 1010.7 1006.2 0.0
27/10:00pm 23.1 22.2 9.1 41 7.7 NNW 4 6 2 3 1010.5 1006.1 0.0
27/09:30pm 24.9 22.9 7.1 32 9.6 NNW 7 9 4 5 1010.3 1005.9 0.0
27/09:00pm 24.3 22.3 7.0 33 9.3 N 7 7 4 4 1010.2 1005.8 0.0
27/08:30pm 26.5 24.3 6.0 27 10.9 NW 7 9 4 5 1009.9 1005.5 0.0
27/08:00pm 27.6 25.3 5.8 25 11.6 NNW 7 9 4 5 1009.6 1005.2 0.0
27/07:30pm 28.8 26.5 5.6 23 12.5 NNW 7 9 4 5 1009.3 1004.9 0.0
27/07:00pm 30.8 28.8 4.5 19 14.0 NNE 4 6 2 3 1009.1 1004.6 0.0
27/06:30pm 33.9 31.2 0.5 12 17.0 WSW 4 6 2 3 1008.9 1004.4 0.0
27/06:00pm 34.2 31.2 0.8 12 17.1 ENE 6 11 3 6 1008.6 1004.2 0.0
27/05:30pm 35.0 31.9 0.2 11 17.7 ESE 6 11 3 6 1008.5 1004.1 0.0
27/05:00pm 35.4 32.5 1.7 12 17.6 WSW 6 9 3 5 1008.5 1004.1 0.0
27/04:30pm 34.5 30.8 -0.2 11 17.5 SSW 9 17 5 9 1008.4 1004.0 0.0
27/04:00pm 35.6 33.1 1.8 12 17.7 WNW 4 7 2 4 1008.4 1004.0 0.0
27/03:30pm 35.0 31.3 0.2 11 17.7 SSW 9 17 5 9 1008.6 1004.2 0.0
27/03:00pm 34.8 30.7 0.0 11 17.6 S 11 19 6 10 1009.0 1004.5 0.0
27/02:30pm 34.8 31.1 0.0 11 17.6 SE 9 35 5 19 1009.1 1004.6 0.0
27/02:00pm 34.1 30.9 -0.5 11 17.3 S 6 13 3 7 1009.6 1005.2 0.0
27/01:30pm 34.4 31.8 3.1 14 16.6 NNW 6 11 3 6 1010.0 1005.6 0.0
27/01:00pm 33.6 30.1 1.4 13 16.5 W 9 13 5 7 1010.5 1006.1 0.0
27/12:30pm 33.4 30.5 1.3 13 16.5 N 6 15 3 8 1011.1 1006.7 0.0
27/12:00pm 32.6 28.6 0.6 13 16.1 NNE 11 20 6 11 1011.6 1007.2 0.0
27/11:30am 32.5 28.5 0.6 13 16.1 NE 11 19 6 10 1011.9 1007.5 0.0

Other formats

Comma delimited format used in spreadsheet applications
http://www.bom.gov.au/fwo/IDD60801/IDD60801.94328.axf

JavaScript Object Notation format (JSON) in row-major order
http://www.bom.gov.au/fwo/IDD60801/IDD60801.94328.json

Data quality

Most of these data are generated automatically and are frequently updated. Quality checks on data are not normally performed. It is possible for incorrect values to appear. Refer to information at About Latest Weather Observations and please check the disclaimer before using these data.